Kellogg, Minnesota
Current Conditions -  °F | °C
As of 1:53 AM on Friday 31 Oct 2014 (Local Time) from KONA Reporting Station
Scattered Clouds Scattered Clouds  
Wind Chill: 23°   Ceiling: Unl
Heat Index: 34°   Visibility: 10mi
Dew Point: 19°   Wind: 17mph
Humidity: 56%   Direction: 340°NNW
Pressure: 30.3"   Gusts: 25mph
Location:  44.31°N, 92°W
Report Text: KONA 310653Z AUTO 34015G22KT 10SM SCT060 01/M07 A3030 RMK AO2
Loading
Personal Weather Stations






























Interactive Weather Map
Tropical Storm Tracking
New forecast layout! Learn more

10-Day Weather Forecast

Advertisements
Track Severe Weather on mobile